createdAt,value
2018-10-07T00:07:41.203Z,20.40
2018-10-07T00:10:09.868Z,20.60
2018-10-07T00:15:06.604Z,20.80
2018-10-07T00:17:35.074Z,20.80
2018-10-07T00:20:04.032Z,20.80
2018-10-07T00:22:32.566Z,20.70
2018-10-07T00:27:29.424Z,20.60
2018-10-07T00:32:28.221Z,20.60
2018-10-07T00:34:56.734Z,20.50
2018-10-07T00:37:26.338Z,20.40
2018-10-07T00:39:54.896Z,20.40
2018-10-07T00:42:25.569Z,20.40
2018-10-07T00:44:54.212Z,20.40
2018-10-07T00:49:51.055Z,20.50
2018-10-07T00:52:19.609Z,20.50
2018-10-07T00:54:48.298Z,20.50
2018-10-07T00:57:16.881Z,20.50
2018-10-07T00:59:46.249Z,20.50
2018-10-07T01:02:19.162Z,20.50
2018-10-07T01:04:47.780Z,20.60
2018-10-07T01:07:21.702Z,20.70
2018-10-07T01:09:50.549Z,20.70
2018-10-07T01:12:19.117Z,20.80
2018-10-07T01:14:50.200Z,20.80
2018-10-07T01:19:47.127Z,20.80
2018-10-07T01:22:17.455Z,20.80
2018-10-07T01:24:46.232Z,20.80
2018-10-07T01:27:14.786Z,20.70
2018-10-07T01:29:43.347Z,20.30
2018-10-07T01:34:40.111Z,20.00
2018-10-07T01:37:08.751Z,19.80
2018-10-07T01:39:37.285Z,19.70
2018-10-07T01:42:05.877Z,19.70
2018-10-07T01:47:07.018Z,19.70
2018-10-07T01:49:35.608Z,19.80
2018-10-07T01:52:04.192Z,19.80
2018-10-07T01:54:32.741Z,19.80
2018-10-07T01:57:01.283Z,19.80
2018-10-07T01:59:30.141Z,19.90
2018-10-07T02:01:58.674Z,20.00
2018-10-07T02:04:27.211Z,19.90
2018-10-07T02:06:55.797Z,19.80
2018-10-07T02:09:24.273Z,19.80
2018-10-07T02:11:52.803Z,19.70
2018-10-07T02:14:22.017Z,19.60
2018-10-07T02:16:50.583Z,19.70
2018-10-07T02:19:19.277Z,19.70
2018-10-07T02:21:47.817Z,19.70
2018-10-07T02:24:16.357Z,19.70
2018-10-07T02:26:44.941Z,19.60
2018-10-07T02:29:13.470Z,19.60
2018-10-07T02:31:42.066Z,19.60
2018-10-07T02:34:10.660Z,19.50
2018-10-07T02:36:39.141Z,19.50
2018-10-07T02:39:08.855Z,19.40
2018-10-07T02:41:37.407Z,19.40
2018-10-07T02:44:05.944Z,19.40
2018-10-07T02:46:35.264Z,19.40
2018-10-07T02:49:03.853Z,19.40
2018-10-07T02:51:32.460Z,19.40
2018-10-07T02:54:01.287Z,19.40
2018-10-07T02:56:33.940Z,19.30
2018-10-07T02:59:08.553Z,19.40
2018-10-07T03:01:37.168Z,19.30
2018-10-07T03:04:05.870Z,19.30
2018-10-07T03:06:42.714Z,19.30
2018-10-07T03:09:11.559Z,19.40
2018-10-07T03:11:40.469Z,19.30
2018-10-07T03:14:13.572Z,19.40
2018-10-07T03:16:53.953Z,19.40
2018-10-07T03:19:28.109Z,19.50
2018-10-07T03:22:02.027Z,19.40
2018-10-07T03:24:30.599Z,19.40
2018-10-07T03:26:59.144Z,19.40
2018-10-07T03:29:27.672Z,19.40
2018-10-07T03:34:24.582Z,19.30
2018-10-07T03:36:53.208Z,19.20
2018-10-07T03:39:21.752Z,19.20
2018-10-07T03:41:50.369Z,19.30
2018-10-07T03:44:19.108Z,19.40
2018-10-07T03:46:53.471Z,19.50
2018-10-07T03:51:56.023Z,19.70
2018-10-07T03:54:24.644Z,19.80
2018-10-07T03:56:53.301Z,19.80
2018-10-07T03:59:22.020Z,19.60
2018-10-07T04:02:02.837Z,19.60
2018-10-07T04:07:12.561Z,19.60
2018-10-07T04:09:54.308Z,19.60
2018-10-07T04:12:32.597Z,19.50
2018-10-07T04:15:06.162Z,19.50
2018-10-07T04:22:47.497Z,19.30
2018-10-07T04:25:23.044Z,19.40
2018-10-07T04:27:57.566Z,19.50
2018-10-07T04:30:35.936Z,19.60
2018-10-07T04:35:32.964Z,19.80
2018-10-07T04:38:11.748Z,19.90
2018-10-07T04:40:40.411Z,20.00
2018-10-07T04:43:08.966Z,20.00
2018-10-07T04:45:43.624Z,19.90
2018-10-07T04:48:14.363Z,19.80
2018-10-07T04:50:51.038Z,19.80
2018-10-07T04:53:26.666Z,19.80
2018-10-07T04:55:59.273Z,19.90
2018-10-07T04:58:28.026Z,19.90
2018-10-07T05:11:01.408Z,20.00
2018-10-07T05:13:47.291Z,20.00
2018-10-07T05:16:20.144Z,20.00
2018-10-07T05:18:49.333Z,19.90
2018-10-07T05:21:17.878Z,19.80
2018-10-07T05:23:46.499Z,19.70
2018-10-07T05:26:21.055Z,19.50
2018-10-07T05:28:49.767Z,19.50
2018-10-07T05:31:19.720Z,19.40
2018-10-07T05:33:48.246Z,19.30
2018-10-07T05:36:16.883Z,19.10
2018-10-07T06:05:34.257Z,17.70
2018-10-07T06:16:04.550Z,17.80
2018-10-07T06:18:33.161Z,18.00
2018-10-07T06:21:01.988Z,17.50
2018-10-07T06:23:31.220Z,17.60
2018-10-07T06:26:00.200Z,17.80
2018-10-07T06:28:29.655Z,18.00
2018-10-07T06:33:27.215Z,18.30
2018-10-07T06:35:55.873Z,18.20
2018-10-07T06:38:24.904Z,18.30
2018-10-07T06:40:53.700Z,18.40
2018-10-07T06:43:48.123Z,18.50
2018-10-07T06:46:17.825Z,18.50
2018-10-07T06:48:46.586Z,18.50
2018-10-07T06:54:13.260Z,18.30
2018-10-07T06:56:58.203Z,18.20
2018-10-07T06:59:26.916Z,18.20
2018-10-07T07:01:55.672Z,18.10
2018-10-07T07:04:26.388Z,18.00
2018-10-07T07:07:25.402Z,18.00
2018-10-07T07:13:30.262Z,17.70
2018-10-07T07:16:00.687Z,17.50
2018-10-07T07:18:30.968Z,17.40
2018-10-07T07:21:00.091Z,17.50
2018-10-07T07:28:12.100Z,17.70
2018-10-07T07:35:38.569Z,17.50
2018-10-07T07:38:07.893Z,17.60
2018-10-07T07:43:05.546Z,17.70
2018-10-07T07:48:05.711Z,17.40
2018-10-07T07:50:34.314Z,17.50
2018-10-07T07:53:03.045Z,17.40
2018-10-07T07:55:31.606Z,17.40
2018-10-07T07:58:00.439Z,17.40
2018-10-07T08:00:29.010Z,17.40
2018-10-07T08:02:58.949Z,17.30
2018-10-07T08:05:27.539Z,17.40
2018-10-07T08:08:00.132Z,17.40
2018-10-07T08:10:28.772Z,17.50
2018-10-07T08:12:57.520Z,17.50
2018-10-07T08:15:26.260Z,17.40
2018-10-07T08:17:54.963Z,17.30
2018-10-07T08:20:23.618Z,17.30
2018-10-07T08:27:48.792Z,17.10
2018-10-07T08:30:17.528Z,17.10
2018-10-07T08:32:47.161Z,17.00
2018-10-07T08:40:14.881Z,17.40
2018-10-07T08:45:44.549Z,17.50
2018-10-07T08:48:13.801Z,17.60
2018-10-07T08:50:43.060Z,17.80
2018-10-07T08:55:59.481Z,18.00
2018-10-07T08:58:28.099Z,17.90
2018-10-07T09:00:56.596Z,17.90
2018-10-07T09:03:26.183Z,17.80
2018-10-07T09:05:54.713Z,17.90
2018-10-07T09:08:23.266Z,17.90
2018-10-07T09:10:51.772Z,17.90
2018-10-07T09:13:20.329Z,18.00
2018-10-07T09:15:48.915Z,18.00
2018-10-07T09:18:17.397Z,18.00
2018-10-07T09:20:46.076Z,18.00
2018-10-07T09:23:15.485Z,18.00
2018-10-07T09:25:44.061Z,18.00
2018-10-07T09:28:13.958Z,18.00
2018-10-07T09:30:42.524Z,18.00
2018-10-07T09:33:11.074Z,18.10
2018-10-07T09:35:39.685Z,18.10
2018-10-07T09:38:08.378Z,18.20
2018-10-07T09:40:36.914Z,18.20
2018-10-07T09:43:05.535Z,18.30
2018-10-07T09:45:35.675Z,18.30
2018-10-07T09:49:20.066Z,18.30
2018-10-07T09:51:52.303Z,18.20
2018-10-07T09:57:00.722Z,18.30
2018-10-07T09:59:29.320Z,18.40
2018-10-07T10:01:57.893Z,18.50
2018-10-07T10:04:26.652Z,18.60
2018-10-07T10:06:55.316Z,18.50
2018-10-07T10:09:25.878Z,18.40
2018-10-07T10:11:54.454Z,18.50
2018-10-07T10:14:23.026Z,18.50
2018-10-07T10:17:23.890Z,18.70
2018-10-07T10:20:01.322Z,18.80
2018-10-07T10:24:47.818Z,18.70
2018-10-07T10:27:58.748Z,18.80
2018-10-07T10:30:46.269Z,18.40
2018-10-07T10:33:25.025Z,18.50
2018-10-07T10:37:03.630Z,18.70
2018-10-07T10:39:51.938Z,18.70
2018-10-07T10:42:53.060Z,18.80
2018-10-07T10:45:34.387Z,19.00
2018-10-07T10:48:14.414Z,19.00
2018-10-07T10:50:48.559Z,18.80
2018-10-07T10:56:19.181Z,19.10
2018-10-07T11:01:03.668Z,19.20
2018-10-07T11:03:51.142Z,19.30
2018-10-07T11:07:27.321Z,19.10
2018-10-07T11:10:15.404Z,19.10
2018-10-07T11:12:58.997Z,18.90
2018-10-07T11:15:43.186Z,18.90
2018-10-07T11:18:15.517Z,18.80
2018-10-07T11:21:53.258Z,18.90
2018-10-07T11:24:28.589Z,18.90
2018-10-07T11:28:08.668Z,18.90
2018-10-07T11:30:46.770Z,18.70
2018-10-07T11:33:22.717Z,18.70
2018-10-07T11:35:59.161Z,18.70
2018-10-07T11:38:40.072Z,18.80
2018-10-07T11:41:27.030Z,18.90
2018-10-07T11:46:16.018Z,19.00
2018-10-07T11:49:13.465Z,19.10
2018-10-07T11:52:22.972Z,19.20
2018-10-07T11:54:53.381Z,19.20
2018-10-07T12:00:07.644Z,19.30
2018-10-07T12:12:02.084Z,19.30
2018-10-07T12:16:59.613Z,19.40
2018-10-07T12:19:30.184Z,19.50
2018-10-07T12:21:58.938Z,19.60
2018-10-07T12:24:28.943Z,19.70
2018-10-07T12:26:57.855Z,19.80
2018-10-07T12:29:29.047Z,19.90
2018-10-07T12:31:58.606Z,20.00
2018-10-07T12:34:27.413Z,19.90
2018-10-07T12:36:56.566Z,19.90
2018-10-07T12:39:26.121Z,19.80
2018-10-07T12:42:06.709Z,19.80
2018-10-07T12:44:36.238Z,19.80
2018-10-07T12:47:05.662Z,19.90
2018-10-07T12:49:42.982Z,19.80
2018-10-07T12:55:13.279Z,19.70
2018-10-07T12:57:41.944Z,19.70
2018-10-07T13:00:12.480Z,19.80
2018-10-07T13:02:41.068Z,20.00
2018-10-07T13:05:09.875Z,20.30
2018-10-07T13:07:39.861Z,20.60
2018-10-07T13:10:11.624Z,20.60
2018-10-07T13:12:40.281Z,20.60
2018-10-07T13:15:31.826Z,20.50
2018-10-07T13:18:01.957Z,20.30
2018-10-07T13:20:33.056Z,20.20
2018-10-07T13:23:05.479Z,20.20
2018-10-07T13:25:34.220Z,20.30
2018-10-07T13:28:02.788Z,20.30
2018-10-07T13:30:31.562Z,20.40
2018-10-07T13:33:00.168Z,20.60
2018-10-07T13:37:58.131Z,21.10
2018-10-07T13:40:26.758Z,21.20
2018-10-07T13:42:55.249Z,21.10
2018-10-07T13:45:25.189Z,21.20
2018-10-07T13:47:53.902Z,21.10
2018-10-07T13:50:23.112Z,21.20
2018-10-07T13:52:51.675Z,21.20
2018-10-07T13:55:20.537Z,21.20
2018-10-07T13:57:49.035Z,21.20
2018-10-07T14:00:17.645Z,21.10
2018-10-07T14:02:47.340Z,21.10
2018-10-07T14:07:44.920Z,21.00
2018-10-07T14:10:15.895Z,20.80
2018-10-07T14:12:49.414Z,20.70
2018-10-07T14:15:22.826Z,20.80
2018-10-07T14:17:52.051Z,20.80
2018-10-07T14:20:22.736Z,20.70
2018-10-07T14:22:53.100Z,20.80
2018-10-07T14:25:21.762Z,20.80
2018-10-07T14:27:50.939Z,20.90
2018-10-07T14:30:20.563Z,20.90
2018-10-07T14:32:49.158Z,20.90
2018-10-07T14:35:21.215Z,21.00
2018-10-07T14:37:50.462Z,21.00
2018-10-07T14:40:19.220Z,20.90
2018-10-07T14:42:48.138Z,20.90
2018-10-07T14:47:45.482Z,20.70
2018-10-07T14:50:17.575Z,20.80
2018-10-07T14:52:46.247Z,20.90
2018-10-07T14:55:15.108Z,21.00
2018-10-07T14:57:44.318Z,21.00
2018-10-07T15:00:13.076Z,21.00
2018-10-07T15:02:41.800Z,20.90
2018-10-07T15:05:10.697Z,20.90
2018-10-07T15:10:07.707Z,20.90
2018-10-07T15:15:06.069Z,20.70
2018-10-07T15:20:02.891Z,20.50
2018-10-07T15:22:31.516Z,20.50
2018-10-07T15:25:01.083Z,20.50
2018-10-07T15:27:29.632Z,20.40
2018-10-07T15:29:58.314Z,20.40
2018-10-07T15:32:27.996Z,20.40
2018-10-07T15:34:56.543Z,20.30
2018-10-07T15:37:25.226Z,20.20
2018-10-07T15:39:53.946Z,20.30
2018-10-07T15:42:22.599Z,20.30
2018-10-07T15:44:52.250Z,20.20
2018-10-07T15:47:20.937Z,20.20
2018-10-07T15:49:50.570Z,20.20
2018-10-07T15:52:19.257Z,20.30
2018-10-07T15:54:47.886Z,20.40
2018-10-07T16:02:14.516Z,20.20
2018-10-07T16:04:55.213Z,20.20
2018-10-07T16:07:29.028Z,20.20
2018-10-07T16:09:59.192Z,20.30
2018-10-07T16:12:27.740Z,20.20
2018-10-07T16:14:56.508Z,20.10
2018-10-07T16:17:25.251Z,19.90
2018-10-07T16:19:53.905Z,19.90
2018-10-07T16:22:23.498Z,19.80
2018-10-07T16:24:52.230Z,19.80
2018-10-07T16:27:21.659Z,19.80
2018-10-07T16:29:50.329Z,19.70
2018-10-07T16:32:19.042Z,19.60
2018-10-07T16:34:47.649Z,19.60
2018-10-07T16:37:16.222Z,19.60
2018-10-07T16:42:15.302Z,19.50
2018-10-07T16:44:45.356Z,19.40
2018-10-07T16:47:14.053Z,19.40
2018-10-07T16:49:43.485Z,19.40
2018-10-07T16:52:12.108Z,19.40
2018-10-07T16:54:40.896Z,19.30
2018-10-07T16:57:09.608Z,19.30
2018-10-07T16:59:38.377Z,19.30
2018-10-07T17:02:06.974Z,19.30
2018-10-07T17:04:37.250Z,19.20
2018-10-07T17:11:19.152Z,19.10
2018-10-07T17:13:47.757Z,19.10
2018-10-07T17:16:16.479Z,19.00
2018-10-07T17:18:45.097Z,19.10
2018-10-07T17:21:13.761Z,18.80
2018-10-07T17:26:11.620Z,18.80
2018-10-07T17:28:40.133Z,18.80
2018-10-07T17:31:09.076Z,18.60
2018-10-07T17:33:38.039Z,18.60
2018-10-07T17:36:06.729Z,18.70
2018-10-07T17:38:37.317Z,18.70
2018-10-07T17:41:06.057Z,18.80
2018-10-07T17:43:34.862Z,18.90
2018-10-07T17:46:04.423Z,18.80
2018-10-07T17:48:33.212Z,18.80
2018-10-07T17:51:02.637Z,18.80
2018-10-07T17:53:31.273Z,18.80
2018-10-07T17:56:00.200Z,18.70
2018-10-07T17:58:28.804Z,18.70
2018-10-07T18:00:57.634Z,18.70
2018-10-07T18:05:54.464Z,18.70
2018-10-07T18:08:27.616Z,18.70
2018-10-07T18:10:57.320Z,18.70
2018-10-07T18:13:25.985Z,18.70
2018-10-07T18:15:54.567Z,18.50
2018-10-07T18:18:25.223Z,18.50
2018-10-07T18:20:53.855Z,18.50
2018-10-07T18:23:22.548Z,18.50
2018-10-07T18:28:19.484Z,18.60
2018-10-07T18:30:48.110Z,18.60
2018-10-07T18:35:46.115Z,18.50
2018-10-07T18:38:15.146Z,18.40
2018-10-07T18:40:44.477Z,18.40
2018-10-07T18:43:13.248Z,18.30
2018-10-07T18:45:41.636Z,18.20
2018-10-07T18:48:10.270Z,18.20
2018-10-07T18:50:38.800Z,18.10
2018-10-07T18:53:07.441Z,18.10
2018-10-07T18:55:35.973Z,18.20
2018-10-07T18:58:04.482Z,18.30
2018-10-07T19:00:35.092Z,18.30
2018-10-07T19:03:03.975Z,18.30
2018-10-07T19:05:32.395Z,18.30
2018-10-07T19:08:00.984Z,18.20
2018-10-07T19:10:30.410Z,18.20
2018-10-07T19:12:59.232Z,18.20
2018-10-07T19:15:28.914Z,18.20
2018-10-07T19:17:57.592Z,18.20
2018-10-07T19:20:26.354Z,18.20
2018-10-07T19:22:55.025Z,18.10
2018-10-07T19:25:26.117Z,18.10
2018-10-07T19:27:57.249Z,18.10
2018-10-07T19:30:27.984Z,18.10
2018-10-07T19:32:57.960Z,18.10
2018-10-07T19:35:27.122Z,18.10
2018-10-07T19:37:55.685Z,18.00
2018-10-07T19:40:24.346Z,18.00
2018-10-07T19:43:17.602Z,18.00
2018-10-07T19:45:46.325Z,18.00
2018-10-07T19:50:43.425Z,18.00
2018-10-07T19:53:13.097Z,17.90
2018-10-07T19:55:42.081Z,18.00
2018-10-07T19:58:12.580Z,18.00
2018-10-07T20:00:42.749Z,18.00
2018-10-07T20:05:39.652Z,17.90
2018-10-07T20:08:09.205Z,17.90
2018-10-07T20:10:37.843Z,17.90
2018-10-07T20:13:06.671Z,17.90
2018-10-07T20:16:03.549Z,18.00
2018-10-07T20:18:35.757Z,18.00
2018-10-07T20:21:04.432Z,17.90
2018-10-07T20:23:39.737Z,17.90
2018-10-07T20:26:09.743Z,17.90
2018-10-07T20:28:42.784Z,17.80
2018-10-07T20:31:11.401Z,17.80
2018-10-07T20:34:10.402Z,17.80
2018-10-07T20:36:44.728Z,17.70
2018-10-07T20:39:14.589Z,17.70
2018-10-07T20:41:43.327Z,17.60
2018-10-07T20:44:38.113Z,17.70
2018-10-07T20:47:08.598Z,17.70
2018-10-07T20:49:41.750Z,17.70
2018-10-07T20:57:39.591Z,17.40
2018-10-07T21:00:28.929Z,17.40
2018-10-07T21:02:57.582Z,17.40
2018-10-07T21:07:57.861Z,17.40
2018-10-07T21:10:26.434Z,17.40
2018-10-07T21:12:55.096Z,17.50
2018-10-07T21:15:23.732Z,17.50
2018-10-07T21:17:53.184Z,17.40
2018-10-07T21:20:21.900Z,17.40
2018-10-07T21:22:51.535Z,17.40
